Time;durP1;ratioP1;P1;durP2;ratioP2;P2;SDS_P1;SDS_P2;PMS_P1;PMS_P2;Temp;Humidity;BMP_temperature;BMP_pressure;BME280_temperature;BME280_humidity;BME280_pressure;Samples;Min_cycle;Max_cycle;Signal;HPM_P1;HPM_P2
2022/04/28 00:05:38;;;;;;;7.00;3.10;;;16.90;68.60;;;;;;10940304;32;20026;-67
2022/04/28 00:11:40;;;;;;;3.67;2.20;;;16.80;69.10;;;;;;10941196;32;20089;-68
2022/04/28 00:17:42;;;;;;;5.12;2.60;;;16.70;69.40;;;;;;10944252;32;20015;-68
2022/04/28 00:23:44;;;;;;;4.40;3.08;;;16.70;69.50;;;;;;10948023;32;20356;-68
2022/04/28 00:29:47;;;;;;;3.10;2.00;;;16.70;69.70;;;;;;10947948;32;20061;-68
2022/04/28 00:35:50;;;;;;;4.22;3.00;;;16.70;70.00;;;;;;10948138;32;20387;-70
2022/04/28 00:41:53;;;;;;;4.20;2.17;;;16.50;70.60;;;;;;10947955;32;20031;-70
2022/04/28 00:54:16;;;;;;;4.20;2.87;;;16.40;70.80;;;;;;10947651;32;20401;-71
2022/04/28 01:00:18;;;;;;;4.05;3.22;;;16.30;71.40;;;;;;10947465;32;20334;-71
2022/04/28 01:06:20;;;;;;;3.12;2.53;;;16.30;71.40;;;;;;10947053;32;20423;-71
2022/04/28 01:12:24;;;;;;;6.07;3.20;;;16.20;71.20;;;;;;10942581;32;20023;-71
2022/04/28 01:18:26;;;;;;;3.37;2.45;;;16.20;71.20;;;;;;10637164;32;10004280;-70
2022/04/28 01:24:30;;;;;;;3.75;2.70;;;16.10;71.40;;;;;;10948233;32;20072;-70
2022/04/28 01:30:42;;;;;;;2.45;2.15;;;16.00;71.70;;;;;;10941631;32;20030;-71
2022/04/28 01:36:44;;;;;;;2.70;2.28;;;15.90;72.60;;;;;;10932401;32;20019;-71
2022/04/28 01:42:50;;;;;;;4.22;2.80;;;15.90;72.60;;;;;;10945559;32;20023;-71
2022/04/28 01:48:54;;;;;;;3.75;3.03;;;15.80;72.40;;;;;;10945419;32;20069;-71
2022/04/28 01:55:01;;;;;;;4.55;3.05;;;15.80;72.60;;;;;;10945075;32;20026;-71
2022/04/28 02:01:03;;;;;;;6.37;4.15;;;15.70;72.60;;;;;;10944875;32;20058;-71
2022/04/28 02:07:06;;;;;;;4.53;2.78;;;15.70;72.50;;;;;;10944717;32;20045;-71
2022/04/28 02:13:08;;;;;;;4.07;2.58;;;15.70;72.90;;;;;;10944285;32;20342;-71
2022/04/28 02:19:36;;;;;;;4.20;2.67;;;15.50;72.90;;;;;;10944869;32;20297;-71
2022/04/28 02:25:38;;;;;;;3.58;2.30;;;15.50;72.70;;;;;;10943806;32;20053;-71
2022/04/28 02:31:41;;;;;;;3.08;2.25;;;15.40;72.80;;;;;;10943819;32;20366;-71
2022/04/28 02:37:43;;;;;;;6.87;3.20;;;15.40;73.40;;;;;;10943358;32;20347;-71
2022/04/28 02:43:45;;;;;;;4.25;2.47;;;15.40;73.60;;;;;;10929537;32;20045;-71
2022/04/28 02:49:47;;;;;;;2.97;2.40;;;15.30;73.50;;;;;;10943106;32;20015;-71
2022/04/28 02:55:56;;;;;;;3.05;2.12;;;15.30;73.60;;;;;;10942984;32;20065;-71
2022/04/28 03:01:58;;;;;;;3.90;2.85;;;15.20;73.70;;;;;;10942795;32;20108;-71
2022/04/28 03:14:21;;;;;;;2.45;1.73;;;15.20;74.30;;;;;;10942362;32;20050;-71
2022/04/28 03:20:24;;;;;;;4.15;2.53;;;15.20;74.10;;;;;;10928779;32;20049;-71
2022/04/28 03:26:33;;;;;;;4.85;3.33;;;15.00;73.90;;;;;;10942084;32;20027;-71
2022/04/28 03:32:35;;;;;;;3.83;2.55;;;15.00;74.40;;;;;;10941936;32;20034;-71
2022/04/28 03:38:38;;;;;;;3.85;2.12;;;15.00;74.50;;;;;;10941963;32;20019;-71
2022/04/28 03:44:40;;;;;;;4.60;2.60;;;14.80;74.40;;;;;;10941810;32;20045;-71
2022/04/28 03:50:43;;;;;;;3.05;2.28;;;14.70;74.40;;;;;;10943719;32;20019;-71
2022/04/28 03:56:45;;;;;;;4.45;3.30;;;14.70;74.50;;;;;;10949219;32;20030;-71
2022/04/28 04:02:48;;;;;;;6.37;4.03;;;14.80;74.60;;;;;;10949016;32;20073;-71
2022/04/28 04:08:51;;;;;;;4.30;2.83;;;14.80;74.50;;;;;;10948764;32;20019;-71
2022/04/28 04:14:54;;;;;;;2.95;2.47;;;14.80;74.70;;;;;;10947690;32;20015;-71
2022/04/28 04:20:56;;;;;;;3.55;2.70;;;14.80;74.70;;;;;;10948607;32;20019;-71
2022/04/28 04:26:59;;;;;;;4.82;3.55;;;14.80;75.10;;;;;;10944000;32;20019;-71
2022/04/28 04:33:03;;;;;;;6.68;5.18;;;14.80;74.90;;;;;;10948084;32;20045;-71
2022/04/28 04:39:05;;;;;;;5.20;3.78;;;14.80;75.30;;;;;;10947875;32;20018;-71
2022/04/28 04:45:09;;;;;;;4.03;3.17;;;14.80;75.40;;;;;;10943915;32;20074;-71
2022/04/28 04:52:17;;;;;;;6.03;3.75;;;14.80;75.40;;;;;;10831903;32;20409;-72
2022/04/28 04:58:20;;;;;;;4.72;3.10;;;14.90;75.00;;;;;;10831258;32;20046;-70
2022/04/28 05:04:22;;;;;;;3.60;2.30;;;14.80;75.00;;;;;;10830344;32;20415;-72
2022/04/28 05:10:24;;;;;;;3.97;3.45;;;14.80;75.10;;;;;;10830967;32;20020;-71
2022/04/28 05:16:27;;;;;;;6.62;3.58;;;14.80;75.20;;;;;;10830416;32;20024;-71
2022/04/28 05:23:09;;;;;;;5.68;3.72;;;14.90;74.90;;;;;;10857969;32;20030;-71
2022/04/28 05:29:41;;;;;;;4.55;3.25;;;14.90;74.60;;;;;;10946475;32;20026;-71
2022/04/28 05:36:16;;;;;;;3.72;3.03;;;14.90;74.60;;;;;;10830776;32;20024;-71
2022/04/28 05:48:56;;;;;;;3.65;2.62;;;14.90;74.80;;;;;;10830183;32;20032;-71
2022/04/28 05:55:04;;;;;;;2.75;2.08;;;14.90;74.80;;;;;;10825865;32;20389;-71
2022/04/28 06:01:08;;;;;;;4.43;3.00;;;14.90;74.90;;;;;;10830247;32;20028;-71
2022/04/28 06:07:11;;;;;;;2.97;2.10;;;14.80;75.00;;;;;;10927015;32;20077;-71
2022/04/28 06:13:14;;;;;;;4.12;2.62;;;14.90;75.00;;;;;;10926707;32;20421;-71
2022/04/28 06:19:21;;;;;;;2.53;2.03;;;14.90;75.00;;;;;;10938565;32;20316;-71
2022/04/28 06:25:28;;;;;;;6.55;3.00;;;15.00;75.00;;;;;;10934184;32;20031;-72
2022/04/28 06:31:32;;;;;;;1.65;1.40;;;15.10;74.90;;;;;;10941165;32;20053;-71
2022/04/28 06:37:35;;;;;;;5.50;2.53;;;15.20;75.00;;;;;;10944267;32;20031;-71
2022/04/28 06:43:37;;;;;;;3.05;2.20;;;15.30;75.20;;;;;;10939676;32;20331;-72
2022/04/28 06:49:44;;;;;;;3.90;2.67;;;15.40;74.90;;;;;;10943194;32;20023;-71
2022/04/28 06:55:47;;;;;;;7.18;2.90;;;15.50;74.70;;;;;;10943668;32;20038;-72
2022/04/28 07:01:49;;;;;;;5.28;3.62;;;15.60;74.60;;;;;;10936670;32;20053;-72
2022/04/28 07:07:51;;;;;;;6.95;3.58;;;15.70;74.50;;;;;;10943342;32;20041;-72
2022/04/28 07:13:55;;;;;;;6.22;2.95;;;15.70;74.40;;;;;;10943294;32;20035;-72
2022/04/28 07:20:10;;;;;;;4.45;3.03;;;15.70;74.30;;;;;;10938669;32;20062;-72
2022/04/28 07:26:13;;;;;;;3.80;2.58;;;15.80;74.30;;;;;;10942229;32;20023;-72
2022/04/28 07:32:16;;;;;;;5.10;3.50;;;16.00;74.00;;;;;;10942444;32;20192;-73
2022/04/28 07:38:28;;;;;;;3.97;2.53;;;16.20;73.60;;;;;;10941704;32;20057;-74
2022/04/28 07:44:31;;;;;;;3.35;1.75;;;16.30;73.40;;;;;;10942598;32;20051;-73
2022/04/28 07:50:40;;;;;;;2.08;1.80;;;16.50;73.20;;;;;;10941381;32;20019;-73
2022/04/28 07:56:49;;;;;;;2.67;1.87;;;16.70;72.70;;;;;;10942316;32;20079;-72
2022/04/28 08:02:51;;;;;;;2.65;1.80;;;16.80;72.20;;;;;;10942022;32;20026;-72
2022/04/28 08:09:16;;;;;;;6.32;2.03;;;17.00;71.90;;;;;;10939944;32;20042;-72
2022/04/28 08:15:23;;;;;;;1.83;1.40;;;17.20;71.40;;;;;;10919494;32;20400;-72
2022/04/28 08:21:34;;;;;;;3.92;1.77;;;17.30;70.50;;;;;;10903600;32;20019;-71
2022/04/28 08:27:38;;;;;;;2.05;1.48;;;17.30;70.00;;;;;;10903456;32;20364;-74
2022/04/28 08:33:40;;;;;;;3.25;1.90;;;17.40;69.40;;;;;;10903584;32;20047;-72
2022/04/28 08:52:43;;;;;;;2.35;1.77;;;17.70;67.60;;;;;;10910307;32;20351;-72
2022/04/28 08:58:53;;;;;;;3.30;1.62;;;17.80;67.30;;;;;;10909797;32;20054;-71
2022/04/28 09:05:08;;;;;;;2.30;1.30;;;18.20;67.00;;;;;;10909079;32;20054;-71
2022/04/28 09:11:39;;;;;;;1.62;1.20;;;18.40;65.90;;;;;;10909169;32;20050;-71
2022/04/28 09:17:43;;;;;;;2.72;1.62;;;18.60;65.30;;;;;;10970207;27;20038;-71
2022/04/28 09:23:53;;;;;;;2.22;1.65;;;18.70;64.80;;;;;;10984017;32;20022;-73
2022/04/28 09:29:56;;;;;;;2.85;1.70;;;18.90;64.30;;;;;;10981229;32;20056;-70
2022/04/28 09:35:58;;;;;;;2.08;1.70;;;18.90;64.10;;;;;;10982929;32;20022;-70
2022/04/28 09:48:52;;;;;;;2.62;1.50;;;19.00;62.20;;;;;;10978136;32;20041;-70
2022/04/28 09:55:02;;;;;;;2.50;1.42;;;19.00;61.60;;;;;;10982481;32;20022;-72
2022/04/28 10:01:08;;;;;;;4.25;1.98;;;19.20;61.00;;;;;;10978122;32;20015;-71
2022/04/28 10:07:14;;;;;;;2.45;1.27;;;19.40;59.70;;;;;;10982148;32;20065;-70
2022/04/28 10:13:16;;;;;;;2.40;1.60;;;19.60;58.70;;;;;;10981720;32;20322;-71
2022/04/28 10:19:24;;;;;;;3.03;1.70;;;19.70;56.90;;;;;;10968952;32;20041;-71
2022/04/28 10:32:23;;;;;;;1.37;1.00;;;20.00;54.70;;;;;;10981160;32;20053;-69
2022/04/28 10:38:38;;;;;;;1.77;1.00;;;20.20;55.00;;;;;;10980993;32;20042;-70
2022/04/28 10:45:25;;;;;;;1.27;0.82;;;20.30;54.80;;;;;;10981302;32;20031;-70
2022/04/28 10:51:31;;;;;;;2.28;1.33;;;20.60;53.50;;;;;;10980575;32;20031;-71
2022/04/28 10:57:37;;;;;;;2.67;1.75;;;20.70;53.10;;;;;;10976986;32;20314;-70
2022/04/28 11:03:50;;;;;;;2.67;1.33;;;20.80;52.90;;;;;;10979242;32;20045;-72
2022/04/28 11:09:58;;;;;;;1.67;1.40;;;21.20;52.50;;;;;;10966054;32;20022;-70
2022/04/28 11:16:01;;;;;;;2.72;1.52;;;21.50;51.90;;;;;;10946197;32;20292;-72
2022/04/28 11:22:03;;;;;;;4.65;1.77;;;21.70;50.50;;;;;;10941741;32;20049;-72
2022/04/28 11:28:09;;;;;;;2.12;1.77;;;21.90;49.50;;;;;;10937414;32;20042;-69
2022/04/28 11:34:11;;;;;;;2.00;1.05;;;21.90;50.40;;;;;;10940833;32;20018;-69
2022/04/28 11:40:16;;;;;;;2.22;1.45;;;22.00;49.30;;;;;;10941593;32;20022;-69
2022/04/28 11:53:44;;;;;;;1.55;1.10;;;22.20;47.80;;;;;;10751853;33;20314;-71
2022/04/28 11:59:47;;;;;;;2.28;1.67;;;22.50;47.70;;;;;;10751704;33;20513;-68
2022/04/28 12:05:53;;;;;;;1.92;1.35;;;22.60;48.20;;;;;;10739426;33;20072;-69
2022/04/28 12:24:39;;;;;;;2.60;1.48;;;22.50;47.30;;;;;;10756831;33;20424;-70
2022/04/28 12:30:53;;;;;;;2.17;1.40;;;22.40;47.30;;;;;;10931590;32;20398;-69
2022/04/28 12:37:05;;;;;;;6.95;1.80;;;22.40;46.60;;;;;;10948039;32;20350;-70
2022/04/28 12:43:08;;;;;;;2.83;1.75;;;22.50;46.30;;;;;;10947458;32;20070;-72
2022/04/28 12:49:13;;;;;;;3.12;1.73;;;22.30;45.30;;;;;;10949999;32;20027;-69
2022/04/28 12:55:17;;;;;;;4.37;2.10;;;22.20;46.10;;;;;;10984185;32;20048;-70
2022/04/28 13:01:20;;;;;;;2.25;1.50;;;22.20;46.20;;;;;;10984609;32;20041;-69
2022/04/28 13:07:22;;;;;;;1.65;1.27;;;22.30;46.20;;;;;;10984194;32;20066;-70
2022/04/28 13:13:24;;;;;;;2.65;2.17;;;22.40;46.20;;;;;;10970851;32;20053;-69
2022/04/28 13:19:27;;;;;;;2.95;1.75;;;22.40;46.00;;;;;;10981054;32;20026;-70
2022/04/28 13:25:29;;;;;;;2.75;1.50;;;22.50;46.20;;;;;;10983191;32;20030;-70
2022/04/28 13:31:31;;;;;;;5.78;1.42;;;22.70;46.20;;;;;;10949528;32;20026;-69
2022/04/28 13:37:34;;;;;;;2.75;1.60;;;22.70;46.50;;;;;;10941327;32;20019;-69
2022/04/28 13:43:36;;;;;;;1.60;1.15;;;22.80;46.50;;;;;;10941357;32;20038;-69
2022/04/28 13:49:38;;;;;;;4.10;2.25;;;22.90;46.50;;;;;;10944315;32;20023;-69
2022/04/28 13:55:41;;;;;;;1.58;1.10;;;23.10;45.80;;;;;;10943953;32;20039;-69
2022/04/28 14:01:43;;;;;;;2.42;1.62;;;23.20;45.90;;;;;;10944075;32;20050;-69
2022/04/28 14:07:46;;;;;;;2.55;1.77;;;23.20;46.00;;;;;;10944447;32;20034;-69
2022/04/28 14:13:48;;;;;;;2.03;1.35;;;23.20;46.00;;;;;;10944124;32;20026;-70
2022/04/28 14:19:52;;;;;;;2.67;1.65;;;23.30;45.70;;;;;;10944245;32;20031;-71
2022/04/28 14:26:13;;;;;;;1.83;1.25;;;23.30;45.40;;;;;;10943992;32;20034;-72
2022/04/28 14:32:15;;;;;;;1.83;1.25;;;23.30;45.20;;;;;;10943768;32;20035;-69
2022/04/28 14:38:19;;;;;;;11.40;2.12;;;23.40;45.00;;;;;;10942806;32;20018;-69
2022/04/28 14:44:44;;;;;;;1.33;0.88;;;23.60;44.90;;;;;;10942652;32;20030;-69
2022/04/28 14:57:08;;;;;;;2.10;1.35;;;23.80;44.30;;;;;;10942816;32;20041;-69
2022/04/28 15:03:12;;;;;;;3.22;1.45;;;23.90;44.50;;;;;;10942596;32;20057;-69
2022/04/28 15:09:14;;;;;;;1.75;1.30;;;24.00;44.10;;;;;;10942503;32;20023;-69
2022/04/28 15:15:16;;;;;;;2.20;1.30;;;24.20;44.10;;;;;;10928960;32;20015;-69
2022/04/28 15:21:19;;;;;;;3.15;1.80;;;24.30;43.70;;;;;;10940535;32;20284;-70
2022/04/28 15:27:21;;;;;;;4.60;1.85;;;24.70;43.60;;;;;;10928756;32;20018;-70
2022/04/28 15:33:24;;;;;;;3.05;2.08;;;24.80;43.90;;;;;;10940730;32;20050;-70
2022/04/28 15:39:44;;;;;;;3.25;1.65;;;24.80;43.40;;;;;;10941764;32;20323;-69
2022/04/28 15:45:46;;;;;;;6.50;4.53;;;24.70;43.40;;;;;;10942576;32;20030;-70
2022/04/28 15:51:51;;;;;;;3.53;2.78;;;24.70;43.30;;;;;;10944262;32;20323;-70
2022/04/28 15:57:54;;;;;;;10.57;3.15;;;24.40;43.30;;;;;;10948882;32;20046;-70
2022/04/28 16:03:58;;;;;;;5.57;4.03;;;24.30;43.10;;;;;;10945091;32;20411;-69
2022/04/28 16:10:22;;;;;;;4.32;2.42;;;24.30;43.70;;;;;;10948817;32;20035;-69
2022/04/28 16:16:24;;;;;;;4.03;2.35;;;24.20;44.00;;;;;;10948423;32;20047;-70
2022/04/28 16:22:26;;;;;;;4.10;1.48;;;24.60;43.80;;;;;;10948426;32;20061;-69
2022/04/28 16:28:39;;;;;;;2.05;1.50;;;25.10;43.00;;;;;;10947503;32;20049;-69
2022/04/28 16:35:05;;;;;;;2.80;1.85;;;25.30;42.20;;;;;;10947999;32;20308;-70
2022/04/28 16:41:08;;;;;;;2.47;1.20;;;25.30;42.00;;;;;;10947979;32;20053;-69
2022/04/28 16:47:11;;;;;;;1.87;1.40;;;25.20;42.40;;;;;;10946734;32;20027;-69
2022/04/28 16:53:13;;;;;;;2.83;1.52;;;26.20;41.10;;;;;;10947153;32;20050;-70
2022/04/28 16:59:15;;;;;;;2.08;1.05;;;27.20;39.90;;;;;;10946437;32;20027;-69
2022/04/28 17:05:17;;;;;;;1.92;0.98;;;27.60;39.50;;;;;;10946527;32;20399;-69
2022/04/28 17:11:20;;;;;;;2.08;1.20;;;27.00;40.40;;;;;;10946289;32;20027;-69
2022/04/28 17:17:22;;;;;;;2.35;1.17;;;26.20;42.10;;;;;;10976923;27;20391;-69
2022/04/28 17:23:24;;;;;;;2.80;1.65;;;26.80;41.60;;;;;;10984016;32;20022;-69
2022/04/28 17:29:28;;;;;;;5.05;1.70;;;27.80;40.40;;;;;;10981002;32;20034;-72
2022/04/28 17:35:34;;;;;;;4.22;1.15;;;27.30;41.10;;;;;;10984420;32;20026;-72
2022/04/28 17:41:36;;;;;;;1.83;1.15;;;26.40;42.60;;;;;;10979182;32;20035;-72
2022/04/28 17:47:38;;;;;;;1.60;1.20;;;25.60;43.90;;;;;;10982781;32;20057;-73
2022/04/28 17:53:53;;;;;;;1.85;1.42;;;25.20;44.60;;;;;;10980675;32;20045;-73
2022/04/28 17:59:58;;;;;;;2.30;1.50;;;24.40;45.70;;;;;;10982729;32;20433;-73
2022/04/28 18:06:01;;;;;;;3.10;1.62;;;23.70;47.30;;;;;;10982389;32;20402;-73
2022/04/28 18:12:16;;;;;;;2.75;1.60;;;23.20;48.00;;;;;;10964393;32;20045;-73
2022/04/28 18:18:19;;;;;;;2.30;1.20;;;22.80;49.30;;;;;;10982067;32;20053;-73
2022/04/28 18:24:23;;;;;;;2.15;1.35;;;22.30;50.30;;;;;;10980371;32;20331;-73
2022/04/28 18:30:25;;;;;;;2.37;1.48;;;22.00;51.70;;;;;;10981525;32;20394;-72
2022/04/28 18:49:11;;;;;;;2.20;1.62;;;21.30;54.00;;;;;;10943065;32;20045;-72
2022/04/28 18:55:13;;;;;;;3.30;1.90;;;21.20;54.60;;;;;;10940287;32;20050;-73
2022/04/28 19:01:28;;;;;;;2.17;1.77;;;21.00;55.10;;;;;;10942986;32;20026;-73
2022/04/28 19:07:32;;;;;;;3.62;1.98;;;20.90;54.90;;;;;;10942796;32;20030;-73
2022/04/28 19:20:30;;;;;;;4.55;2.70;;;20.70;56.00;;;;;;10941752;32;20030;-72
2022/04/28 19:26:34;;;;;;;5.37;2.80;;;20.60;55.90;;;;;;10942014;32;20342;-72
2022/04/28 19:32:39;;;;;;;2.95;2.42;;;20.50;56.10;;;;;;10941954;32;20022;-72
2022/04/28 19:38:42;;;;;;;3.50;2.40;;;20.40;56.50;;;;;;10942010;32;20050;-72
2022/04/28 19:44:47;;;;;;;4.18;2.67;;;20.30;57.20;;;;;;10937436;32;20035;-72
2022/04/28 19:51:11;;;;;;;3.45;2.15;;;20.30;57.50;;;;;;10941689;32;20038;-73
2022/04/28 19:57:15;;;;;;;2.78;1.90;;;20.10;57.90;;;;;;10941497;32;20035;-72
2022/04/28 20:03:17;;;;;;;1.98;1.37;;;20.00;58.30;;;;;;10941532;32;20031;-72
2022/04/28 20:09:20;;;;;;;2.47;1.98;;;20.00;58.20;;;;;;10941586;32;20027;-72
2022/04/28 20:15:23;;;;;;;3.28;2.33;;;19.90;58.40;;;;;;10941292;32;20023;-72
2022/04/28 20:21:27;;;;;;;6.53;2.83;;;19.80;59.00;;;;;;10937498;32;20034;-72
2022/04/28 20:27:32;;;;;;;3.10;2.08;;;19.80;59.10;;;;;;10941278;32;20023;-72
2022/04/28 20:33:37;;;;;;;3.67;2.12;;;19.80;59.30;;;;;;10955685;32;20084;-72
2022/04/28 20:39:39;;;;;;;3.17;1.98;;;19.80;59.40;;;;;;10947417;32;20334;-72
2022/04/28 20:45:41;;;;;;;3.45;2.45;;;19.80;59.60;;;;;;10943645;32;20027;-72
2022/04/28 20:51:46;;;;;;;3.65;2.58;;;19.70;59.80;;;;;;10947922;32;20464;-72
2022/04/28 20:57:48;;;;;;;3.17;2.33;;;19.70;59.80;;;;;;10947660;32;20023;-72
2022/04/28 21:03:51;;;;;;;5.07;2.80;;;19.60;59.80;;;;;;10947429;32;20023;-72
2022/04/28 21:09:53;;;;;;;4.50;3.05;;;19.50;60.00;;;;;;10947483;32;20168;-72
2022/04/28 21:15:55;;;;;;;3.60;2.83;;;19.40;60.40;;;;;;10946397;32;20011;-73
2022/04/28 21:21:58;;;;;;;3.72;2.47;;;19.30;60.70;;;;;;10946852;32;20027;-72
2022/04/28 21:28:00;;;;;;;3.42;2.33;;;19.20;60.80;;;;;;10946795;32;20027;-73
2022/04/28 21:34:05;;;;;;;4.25;2.33;;;19.20;61.30;;;;;;10944640;32;20030;-73
2022/04/28 21:40:11;;;;;;;4.95;2.65;;;19.20;61.20;;;;;;10944149;32;20301;-72
2022/04/28 21:46:13;;;;;;;7.57;4.07;;;19.10;61.50;;;;;;10943110;32;20089;-72
2022/04/28 21:52:15;;;;;;;4.22;2.35;;;19.10;61.80;;;;;;10945595;32;20014;-72
2022/04/28 21:58:17;;;;;;;4.03;2.47;;;19.00;61.90;;;;;;10942815;32;20030;-72
2022/04/28 22:17:01;;;;;;;3.60;1.95;;;18.70;62.70;;;;;;10944972;32;20015;-73
2022/04/28 22:23:03;;;;;;;4.95;3.03;;;18.60;63.00;;;;;;10943882;32;20351;-73
2022/04/28 22:29:05;;;;;;;3.80;2.70;;;18.60;63.00;;;;;;10944507;32;20342;-72
2022/04/28 22:35:14;;;;;;;4.60;2.53;;;18.60;63.20;;;;;;10943053;32;20031;-72
2022/04/28 22:41:17;;;;;;;2.28;1.37;;;18.50;63.40;;;;;;10943053;32;20367;-73
2022/04/28 22:47:20;;;;;;;2.95;1.98;;;18.50;63.60;;;;;;10942818;32;20057;-73
2022/04/28 22:53:22;;;;;;;2.83;2.20;;;18.40;63.60;;;;;;10943479;32;20030;-73
2022/04/28 22:59:24;;;;;;;4.00;1.45;;;18.40;63.70;;;;;;10942641;32;20027;-73
2022/04/28 23:05:26;;;;;;;3.50;2.33;;;18.40;63.90;;;;;;10942089;32;20378;-73
2022/04/28 23:11:28;;;;;;;3.10;2.15;;;18.40;64.20;;;;;;10942980;32;20327;-73
2022/04/28 23:17:30;;;;;;;2.08;1.58;;;18.40;64.70;;;;;;10942570;32;20019;-73
2022/04/28 23:23:32;;;;;;;2.22;1.80;;;18.40;64.80;;;;;;10941622;32;20054;-73
2022/04/28 23:29:35;;;;;;;2.55;1.62;;;18.40;64.80;;;;;;10942349;32;20023;-73
2022/04/28 23:48:20;;;;;;;3.25;1.90;;;18.30;65.30;;;;;;10941906;32;20053;-73
